Time;durP1;ratioP1;P1;durP2;ratioP2;P2;SDS_P1;SDS_P2;PMS_P1;PMS_P2;Temp;Humidity;BMP_temperature;BMP_pressure;BME280_temperature;BME280_humidity;BME280_pressure;Samples;Min_cycle;Max_cycle;Signal;HPM_P1;HPM_P2
2022/10/15 00:01:58;;;;;;;69.28;32.55;;;;;;;10.19;97.29;99037.72;8499538;27;20047;-82
2022/10/15 00:06:03;;;;;;;63.58;32.90;;;;;;;10.16;97.49;99035.59;8500087;27;20094;-82
2022/10/15 00:10:05;;;;;;;59.88;32.55;;;;;;;10.12;97.80;99021.09;8512344;27;20051;-82
2022/10/15 00:14:05;;;;;;;62.88;35.25;;;;;;;10.11;98.08;99016.81;8498575;27;20058;-82
2022/10/15 00:18:06;;;;;;;66.88;34.65;;;;;;;10.08;98.08;99006.66;8499583;27;20043;-81
2022/10/15 00:22:07;;;;;;;66.57;33.95;;;;;;;10.06;98.16;99006.16;8502575;27;20571;-82
2022/10/15 00:26:15;;;;;;;72.15;35.78;;;;;;;10.00;98.29;98999.28;8456789;27;20054;-81
2022/10/15 00:30:15;;;;;;;69.30;35.25;;;;;;;9.96;98.50;99003.69;8514780;27;20051;-81
2022/10/15 00:34:16;;;;;;;71.97;36.05;;;;;;;9.92;98.69;98997.31;8510462;27;20039;-82
2022/10/15 00:38:17;;;;;;;69.80;34.85;;;;;;;9.88;98.30;99002.56;8493301;27;20058;-81
2022/10/15 00:42:18;;;;;;;68.38;35.58;;;;;;;9.82;98.48;99002.97;8504160;27;20388;-80
2022/10/15 00:46:37;;;;;;;67.32;35.42;;;;;;;9.78;98.93;99007.38;8509927;27;20064;-80
2022/10/15 00:50:41;;;;;;;66.60;35.83;;;;;;;9.75;98.60;99003.38;8511250;27;20043;-80
2022/10/15 00:54:48;;;;;;;73.53;36.88;;;;;;;9.69;99.04;99000.00;8501136;27;20122;-82
2022/10/15 00:58:53;;;;;;;66.68;34.78;;;;;;;9.65;99.05;98999.03;8480810;27;20062;-80
2022/10/15 01:02:54;;;;;;;67.90;35.80;;;;;;;9.63;99.00;98995.81;8498343;27;20084;-81
2022/10/15 01:06:55;;;;;;;65.68;36.13;;;;;;;9.59;98.85;99000.25;8506121;27;20047;-80
2022/10/15 01:11:27;;;;;;;68.45;36.38;;;;;;;9.57;99.41;98986.25;8501064;27;20051;-80
2022/10/15 01:15:43;;;;;;;64.55;34.58;;;;;;;9.53;99.40;98979.88;8499860;27;20043;-80
2022/10/15 01:20:08;;;;;;;70.03;36.38;;;;;;;9.52;99.50;98972.91;8465462;27;20162;-80
2022/10/15 01:24:55;;;;;;;63.20;34.28;;;;;;;9.51;99.70;98960.53;8511962;27;20043;-81
2022/10/15 01:29:34;;;;;;;68.45;36.10;;;;;;;9.51;99.66;98954.34;8371930;28;20060;-80
2022/10/15 01:33:43;;;;;;;67.15;35.38;;;;;;;9.51;99.28;98955.16;8383972;28;20048;-80
2022/10/15 01:37:51;;;;;;;69.10;34.92;;;;;;;9.50;99.64;98937.38;8389223;28;20501;-80
2022/10/15 01:41:58;;;;;;;;;;;;;;;9.50;99.56;98945.47;8356241;28;20044;-81
2022/10/15 01:46:02;;;;;;;62.28;33.50;;;;;;;9.48;99.54;98950.34;8378569;28;20505;-82
2022/10/15 01:50:05;;;;;;;68.03;35.55;;;;;;;9.47;99.90;98954.16;8365993;28;20091;-82
2022/10/15 01:54:10;;;;;;;62.55;32.92;;;;;;;9.48;99.71;98950.34;8384340;28;20541;-82
2022/10/15 01:58:12;;;;;;;69.13;33.88;;;;;;;9.45;100.00;98934.81;8434324;27;20047;-81
2022/10/15 02:02:13;;;;;;;64.28;33.13;;;;;;;9.45;100.00;98925.91;8505792;27;20047;-83
2022/10/15 02:06:36;;;;;;;62.47;33.28;;;;;;;9.43;100.00;98910.03;8518988;27;20043;-81
2022/10/15 02:10:39;;;;;;;69.38;33.85;;;;;;;9.45;100.00;98907.84;8482087;27;20119;-83
2022/10/15 02:14:53;;;;;;;63.28;34.40;;;;;;;9.47;100.00;98905.63;8523488;27;20505;-81
2022/10/15 02:19:00;;;;;;;64.15;33.45;;;;;;;9.47;100.00;98894.84;8522585;27;20407;-82
2022/10/15 02:23:09;;;;;;;70.68;33.75;;;;;;;9.47;100.00;98894.84;8522486;27;20044;-80
2022/10/15 02:27:11;;;;;;;59.40;32.22;;;;;;;9.48;100.00;98880.28;8522284;27;20383;-81
2022/10/15 02:31:14;;;;;;;67.53;32.47;;;;;;;9.48;100.00;98879.47;8485108;27;20043;-80
2022/10/15 02:35:15;;;;;;;58.55;33.00;;;;;;;9.48;100.00;98869.50;8503548;27;20051;-81
2022/10/15 02:39:21;;;;;;;63.72;33.25;;;;;;;9.48;100.00;98858.72;8514596;27;20042;-82
2022/10/15 02:43:21;;;;;;;63.35;32.75;;;;;;;9.49;100.00;98865.69;8507925;27;20039;-81
2022/10/15 02:47:23;;;;;;;53.95;30.73;;;;;;;9.48;100.00;98874.88;8512096;27;20053;-82
2022/10/15 02:51:23;;;;;;;67.63;33.33;;;;;;;9.48;100.00;98866.78;8518402;27;20051;-80
2022/10/15 02:55:24;;;;;;;66.15;34.88;;;;;;;9.45;100.00;98859.34;8503699;27;20108;-82
2022/10/15 02:59:25;;;;;;;67.07;33.78;;;;;;;9.45;100.00;98853.94;8512727;27;20087;-80
2022/10/15 03:03:26;;;;;;;64.55;34.53;;;;;;;9.43;100.00;98845.34;8500779;27;20054;-80
2022/10/15 03:07:27;;;;;;;61.30;33.85;;;;;;;9.41;100.00;98831.38;8506999;27;20047;-81
2022/10/15 03:11:28;;;;;;;70.95;34.85;;;;;;;9.41;100.00;98839.47;8500676;27;20043;-80
2022/10/15 03:15:29;;;;;;;74.82;37.95;;;;;;;9.42;100.00;98846.44;8469467;27;20412;-82
2022/10/15 03:19:30;;;;;;;72.80;37.17;;;;;;;9.45;100.00;98831.56;8489934;27;20051;-81
2022/10/15 03:23:31;;;;;;;73.95;37.60;;;;;;;9.46;100.00;98844.75;8504227;27;20047;-82
2022/10/15 03:27:32;;;;;;;81.25;37.65;;;;;;;9.48;100.00;98847.91;8476574;27;20080;-80
2022/10/15 03:31:33;;;;;;;72.88;38.22;;;;;;;9.51;100.00;98835.75;8463074;28;20051;-80
2022/10/15 03:35:34;;;;;;;77.90;38.63;;;;;;;9.50;100.00;98834.94;8509491;27;20054;-80
2022/10/15 03:39:35;;;;;;;75.03;37.15;;;;;;;9.50;100.00;98834.94;8504313;27;20472;-81
2022/10/15 03:43:36;;;;;;;81.10;38.85;;;;;;;9.52;100.00;98826.53;8506964;27;20567;-82
2022/10/15 03:47:37;;;;;;;80.88;37.95;;;;;;;9.55;100.00;98821.34;8501172;27;20119;-81
2022/10/15 03:51:38;;;;;;;78.35;39.78;;;;;;;9.54;100.00;98814.34;8508402;27;20145;-81
2022/10/15 03:55:38;;;;;;;81.53;38.20;;;;;;;9.54;100.00;98814.34;8491668;27;20066;-81
2022/10/15 03:59:40;;;;;;;77.50;38.03;;;;;;;9.52;100.00;98813.84;8502245;27;20460;-82
2022/10/15 04:03:40;;;;;;;81.85;39.40;;;;;;;9.53;100.00;98818.16;8499730;27;20058;-81
2022/10/15 04:07:41;;;;;;;80.90;40.67;;;;;;;9.52;100.00;98815.75;8500840;27;20087;-81
2022/10/15 04:11:42;;;;;;;76.10;39.80;;;;;;;9.51;100.00;98806.88;8512446;27;20126;-80
2022/10/15 04:15:46;;;;;;;89.05;41.13;;;;;;;9.47;100.00;98808.59;8493804;27;20174;-80
2022/10/15 04:19:47;;;;;;;84.35;40.78;;;;;;;9.47;100.00;98803.19;8512227;27;20042;-80
2022/10/15 04:23:48;;;;;;;85.00;39.63;;;;;;;9.49;100.00;98790.22;8514904;27;20066;-81
2022/10/15 04:27:49;;;;;;;83.43;40.95;;;;;;;9.50;100.00;98791.81;8514403;27;20511;-83
2022/10/15 04:31:50;;;;;;;86.53;39.75;;;;;;;9.50;100.00;98791.81;8499569;27;20563;-82
2022/10/15 04:36:13;;;;;;;81.18;37.97;;;;;;;9.56;100.00;98795.19;8491962;27;20111;-81
2022/10/15 04:40:14;;;;;;;84.63;38.28;;;;;;;9.59;100.00;98789.16;8463688;27;20051;-81
2022/10/15 04:44:15;;;;;;;75.07;38.80;;;;;;;9.64;100.00;98800.59;8516932;27;20043;-80
2022/10/15 04:48:16;;;;;;;82.10;37.53;;;;;;;9.68;100.00;98798.88;8505869;27;20043;-81
2022/10/15 04:52:17;;;;;;;83.93;37.92;;;;;;;9.72;100.00;98799.88;8452808;27;20142;-81
2022/10/15 04:56:20;;;;;;;76.30;37.78;;;;;;;9.73;100.00;98796.03;8512355;27;20047;-81
2022/10/15 05:00:21;;;;;;;85.55;37.08;;;;;;;9.74;100.00;98797.63;8502584;27;20043;-82
2022/10/15 05:04:22;;;;;;;80.05;38.60;;;;;;;9.77;100.00;98792.75;8498877;27;20103;-81
2022/10/15 05:08:22;;;;;;;78.72;37.92;;;;;;;9.78;100.00;98791.63;8506537;27;20070;-81
2022/10/15 05:12:23;;;;;;;84.20;38.55;;;;;;;9.79;100.00;98798.59;8500043;27;20401;-80
2022/10/15 05:16:27;;;;;;;72.93;36.53;;;;;;;9.83;100.00;98799.59;8510063;27;20129;-81
2022/10/15 05:20:31;;;;;;;83.57;38.38;;;;;;;9.86;100.00;98804.34;8515797;27;20046;-82
2022/10/15 05:24:32;;;;;;;78.97;37.47;;;;;;;9.86;100.00;98793.56;8502182;27;20046;-82
2022/10/15 05:28:33;;;;;;;79.35;36.08;;;;;;;9.87;100.00;98787.06;8504070;27;20046;-81
2022/10/15 05:32:37;;;;;;;73.05;35.67;;;;;;;9.87;100.00;98781.69;8501296;27;20036;-81
2022/10/15 05:36:38;;;;;;;77.65;38.15;;;;;;;9.90;100.00;98783.72;8497946;27;20484;-83
2022/10/15 05:40:39;;;;;;;69.68;35.00;;;;;;;9.89;100.00;98774.03;8462243;27;20054;-81
2022/10/15 05:44:40;;;;;;;74.35;37.58;;;;;;;9.86;100.00;98777.38;8498224;27;20043;-81
2022/10/15 05:48:41;;;;;;;84.03;36.67;;;;;;;9.84;100.00;98774.19;8499616;27;20187;-91
2022/10/15 05:52:42;;;;;;;86.93;37.97;;;;;;;9.86;100.00;98778.19;8506877;27;20051;-81
2022/10/15 05:56:43;;;;;;;83.07;38.25;;;;;;;9.90;100.00;98778.34;8512581;27;20051;-80
2022/10/15 06:00:44;;;;;;;78.78;38.78;;;;;;;9.93;100.00;98783.13;8501600;27;20379;-80
2022/10/15 06:04:47;;;;;;;80.38;37.78;;;;;;;9.96;100.00;98785.19;8478764;27;20069;-80
2022/10/15 06:08:49;;;;;;;79.78;38.00;;;;;;;9.98;100.00;98788.38;8424398;28;20135;-81
2022/10/15 06:12:50;;;;;;;86.50;38.30;;;;;;;10.03;100.00;98782.84;8390122;28;20048;-82
2022/10/15 06:16:53;;;;;;;80.63;37.97;;;;;;;10.07;100.00;98789.19;8428976;28;20055;-81
2022/10/15 06:20:54;;;;;;;83.00;38.30;;;;;;;10.11;100.00;98795.56;8438492;28;20139;-81
2022/10/15 06:24:55;;;;;;;85.30;39.42;;;;;;;10.15;100.00;98791.16;8435299;28;20052;-80
2022/10/15 06:28:58;;;;;;;77.00;38.15;;;;;;;10.23;100.00;98803.09;8416726;28;20051;-81
2022/10/15 06:32:59;;;;;;;85.60;39.80;;;;;;;10.28;100.00;98806.44;8425892;28;20059;-80
2022/10/15 06:37:00;;;;;;;85.32;39.75;;;;;;;10.34;100.00;98802.50;8432810;28;20145;-80
2022/10/15 06:41:05;;;;;;;84.50;38.80;;;;;;;10.41;100.00;98805.53;8430494;28;20113;-82
2022/10/15 06:45:07;;;;;;;87.60;40.65;;;;;;;10.45;100.00;98806.47;8471730;27;20097;-80
2022/10/15 06:49:08;;;;;;;82.50;39.83;;;;;;;10.48;100.00;98811.25;8510955;27;20513;-82
2022/10/15 06:53:09;;;;;;;81.95;39.47;;;;;;;10.54;100.00;98812.69;8515822;27;20055;-82
2022/10/15 06:57:11;;;;;;;84.68;40.22;;;;;;;10.62;100.00;98818.44;8495720;27;20054;-81
2022/10/15 07:01:12;;;;;;;83.53;40.47;;;;;;;10.69;100.00;98824.13;8485922;27;20100;-81
2022/10/15 07:05:13;;;;;;;81.05;40.20;;;;;;;10.77;100.00;98817.97;8501061;27;20065;-83
2022/10/15 07:09:13;;;;;;;85.05;42.53;;;;;;;10.82;100.00;98825.91;8494691;27;20519;-80
2022/10/15 07:13:15;;;;;;;97.70;42.53;;;;;;;10.86;100.00;98832.25;8516579;27;20177;-82
2022/10/15 07:17:17;;;;;;;88.30;42.90;;;;;;;10.88;100.00;98835.47;8453823;27;20055;-81
2022/10/15 07:21:18;;;;;;;86.10;43.58;;;;;;;10.96;100.00;98831.94;8497032;27;20039;-81
2022/10/15 07:25:19;;;;;;;83.75;41.85;;;;;;;11.03;100.00;98826.88;8503078;27;20447;-81
2022/10/15 07:29:20;;;;;;;82.03;42.88;;;;;;;11.06;100.00;98837.03;8475834;27;20039;-82
2022/10/15 07:33:21;;;;;;;92.70;42.83;;;;;;;11.12;100.00;98840.38;8494619;27;20395;-82
2022/10/15 07:37:25;;;;;;;85.68;42.13;;;;;;;11.23;100.00;98837.03;8502888;27;20070;-80
2022/10/15 07:41:26;;;;;;;94.35;44.28;;;;;;;11.36;100.00;98844.19;8500318;27;20501;-81
2022/10/15 07:45:27;;;;;;;88.88;43.50;;;;;;;11.50;100.00;98845.91;8501780;27;20043;-82
2022/10/15 07:49:28;;;;;;;91.50;44.15;;;;;;;11.67;100.00;98845.88;8504086;27;20046;-82
2022/10/15 07:53:29;;;;;;;93.05;44.53;;;;;;;11.88;100.00;98846.81;8499538;27;20039;-81
2022/10/15 07:57:30;;;;;;;89.47;43.78;;;;;;;12.06;100.00;98845.63;8506981;27;20061;-81
2022/10/15 08:01:31;;;;;;;87.25;42.35;;;;;;;12.24;100.00;98849.84;8481829;27;20061;-81
2022/10/15 08:05:33;;;;;;;87.70;43.03;;;;;;;12.42;100.00;98849.78;8466353;27;20133;-81
2022/10/15 08:09:34;;;;;;;100.35;43.15;;;;;;;12.62;100.00;98859.88;8500425;27;20096;-81
2022/10/15 08:13:35;;;;;;;77.68;39.97;;;;;;;12.71;100.00;98857.88;8509949;27;20138;-82
2022/10/15 08:17:37;;;;;;;77.13;40.13;;;;;;;12.76;100.00;98849.56;8471067;27;20054;-81
2022/10/15 08:21:38;;;;;;;86.97;40.58;;;;;;;12.84;100.00;98848.72;8508891;27;20042;-82
2022/10/15 08:25:39;;;;;;;81.35;42.13;;;;;;;12.96;99.92;98848.78;8505314;27;20138;-81
2022/10/15 08:29:40;;;;;;;87.43;41.30;;;;;;;13.11;99.59;98850.94;8499997;27;20137;-81
2022/10/15 08:33:42;;;;;;;85.82;42.85;;;;;;;13.22;98.92;98845.91;8499771;27;20058;-81
2022/10/15 08:37:43;;;;;;;78.70;40.63;;;;;;;13.32;98.95;98850.94;8445766;27;20135;-80
2022/10/15 08:41:56;;;;;;;72.68;39.60;;;;;;;13.41;98.40;98864.41;8499095;27;20614;-80
2022/10/15 08:46:01;;;;;;;75.25;38.55;;;;;;;13.48;98.09;98848.41;8479062;27;20054;-80
2022/10/15 08:50:24;;;;;;;81.68;39.47;;;;;;;13.57;97.62;98862.66;8494801;27;20098;-81
2022/10/15 08:54:25;;;;;;;73.38;38.90;;;;;;;13.70;96.81;98864.28;8499493;27;20043;-82
2022/10/15 08:59:05;;;;;;;67.72;34.60;;;;;;;13.75;96.19;98869.50;8425481;28;20421;-81
2022/10/15 09:03:23;;;;;;;63.22;34.67;;;;;;;13.73;95.94;98871.78;8444369;28;20121;-82
2022/10/15 09:07:35;;;;;;;71.30;36.45;;;;;;;13.68;95.63;98863.03;8431356;28;20055;-82
2022/10/15 09:12:17;;;;;;;75.45;37.80;;;;;;;13.61;95.95;98869.00;8425930;28;20060;-82
2022/10/15 09:16:23;;;;;;;75.32;37.65;;;;;;;13.58;96.58;98874.31;8287887;28;20541;-82
2022/10/15 09:20:32;;;;;;;75.20;36.85;;;;;;;13.50;97.54;98878.69;8280161;28;20049;-82
2022/10/15 09:24:33;;;;;;;72.57;36.78;;;;;;;13.46;98.33;98872.34;8292928;28;20116;-82
2022/10/15 09:28:59;;;;;;;75.97;38.33;;;;;;;13.41;99.38;98875.25;8307035;28;20045;-84
2022/10/15 09:33:30;;;;;;;81.97;40.28;;;;;;;13.40;99.79;98873.66;8355489;28;20076;-82
2022/10/15 09:37:42;;;;;;;77.32;39.30;;;;;;;13.36;100.00;98880.88;8344366;28;20049;-83
2022/10/15 09:41:46;;;;;;;74.07;39.53;;;;;;;13.35;100.00;98888.22;8347025;28;20127;-82
2022/10/15 09:45:47;;;;;;;73.82;39.63;;;;;;;13.33;100.00;98890.47;8345772;28;20044;-83
2022/10/15 09:49:48;;;;;;;77.60;41.85;;;;;;;13.36;100.00;98899.88;8449005;27;20038;-83
2022/10/15 09:53:55;;;;;;;85.68;42.22;;;;;;;13.37;100.00;98890.63;8501845;27;20039;-82
2022/10/15 09:58:00;;;;;;;81.70;42.42;;;;;;;13.44;100.00;98902.50;8500047;27;20039;-82
2022/10/15 10:02:03;;;;;;;70.05;37.92;;;;;;;13.47;100.00;98895.63;8423238;28;20076;-82
2022/10/15 10:06:13;;;;;;;68.88;37.40;;;;;;;13.54;100.00;98895.88;8424247;28;20059;-83
2022/10/15 10:10:25;;;;;;;67.22;34.83;;;;;;;13.59;100.00;98903.03;8424008;28;20139;-84
2022/10/15 10:14:36;;;;;;;62.55;32.47;;;;;;;13.61;100.00;98907.00;8389762;28;20068;-83
2022/10/15 10:18:37;;;;;;;57.75;33.30;;;;;;;13.61;100.00;98901.56;8420278;28;20056;-82
2022/10/15 10:22:51;;;;;;;67.88;36.72;;;;;;;13.59;100.00;98909.22;8423621;28;20454;-82
2022/10/15 10:26:52;;;;;;;62.20;34.65;;;;;;;13.62;100.00;98903.16;8423489;28;20105;-82
2022/10/15 10:30:56;;;;;;;60.53;33.28;;;;;;;13.67;100.00;98902.94;8406665;28;20094;-82
2022/10/15 10:34:59;;;;;;;57.33;31.58;;;;;;;13.69;100.00;98903.44;8423577;28;20048;-83
2022/10/15 10:39:01;;;;;;;52.78;30.05;;;;;;;13.69;100.00;98898.00;8447280;27;20063;-82
2022/10/15 10:43:20;;;;;;;54.40;32.42;;;;;;;13.72;100.00;98891.88;8468606;27;20052;-82
2022/10/15 10:47:22;;;;;;;57.25;30.25;;;;;;;13.80;100.00;98888.28;8466104;27;20396;-84
2022/10/15 10:51:25;;;;;;;51.42;30.02;;;;;;;13.86;100.00;98881.50;8463114;27;20051;-82
2022/10/15 10:55:37;;;;;;;53.80;29.80;;;;;;;13.96;100.00;98886.50;8461170;27;20435;-82
2022/10/15 10:59:49;;;;;;;49.53;29.15;;;;;;;14.04;100.00;98892.19;8461524;27;20048;-81
2022/10/15 11:03:50;;;;;;;57.30;29.95;;;;;;;14.06;100.00;98889.94;8462126;27;20039;-82
2022/10/15 11:07:57;;;;;;;54.47;30.67;;;;;;;14.11;100.00;98892.44;8463178;27;20380;-82
2022/10/15 11:12:16;;;;;;;59.50;31.88;;;;;;;14.20;100.00;98885.00;8468250;27;20129;-83
2022/10/15 11:16:28;;;;;;;62.45;33.47;;;;;;;14.30;100.00;98882.63;8453842;27;20141;-83
2022/10/15 11:21:00;;;;;;;62.13;34.15;;;;;;;14.43;99.87;98878.03;8498957;27;20043;-82
2022/10/15 11:25:10;;;;;;;59.70;32.07;;;;;;;14.58;99.19;98874.63;8513750;27;20138;-82
2022/10/15 11:29:17;;;;;;;63.50;31.90;;;;;;;14.71;98.89;98861.81;8509163;27;20307;-82
2022/10/15 11:33:22;;;;;;;121.60;48.13;;;;;;;14.85;98.59;98866.91;8508645;27;20068;-82
2022/10/15 11:37:45;;;;;;;119.95;46.17;;;;;;;15.01;97.57;98870.50;8506948;27;20559;-83
2022/10/15 11:41:59;;;;;;;82.20;38.53;;;;;;;15.25;96.77;98865.00;8457422;27;20121;-83
2022/10/15 11:46:15;;;;;;;68.30;34.17;;;;;;;15.54;95.55;98861.97;8492207;27;20050;-81
2022/10/15 11:50:39;;;;;;;51.67;27.17;;;;;;;15.62;94.46;98858.28;8499090;27;20053;-83
2022/10/15 11:54:44;;;;;;;36.25;22.60;;;;;;;15.60;93.26;98860.56;8506457;27;20035;-83
2022/10/15 11:58:58;;;;;;;43.70;24.25;;;;;;;15.57;92.35;98866.72;8504372;27;20054;-82
2022/10/15 12:03:04;;;;;;;33.33;21.05;;;;;;;15.71;91.61;98862.78;8475603;27;20440;-82
2022/10/15 12:07:06;;;;;;;30.25;20.65;;;;;;;15.84;89.72;98864.31;8512270;27;20855;-80
2022/10/15 12:11:28;;;;;;;31.95;20.92;;;;;;;15.94;88.07;98863.78;8501937;27;20517;-81
2022/10/15 12:15:35;;;;;;;30.85;20.02;;;;;;;16.01;87.16;98869.44;8520614;27;20051;-80
2022/10/15 12:19:48;;;;;;;32.28;20.48;;;;;;;16.09;86.22;98876.63;8515837;27;20047;-80
2022/10/15 12:23:49;;;;;;;37.03;21.23;;;;;;;16.14;85.66;98873.66;8513336;27;20051;-80
2022/10/15 12:28:02;;;;;;;32.22;20.63;;;;;;;16.17;84.93;98872.97;8525516;27;20041;-81
2022/10/15 12:32:06;;;;;;;38.55;20.45;;;;;;;16.15;84.42;98875.25;8511002;27;20043;-84
2022/10/15 12:36:19;;;;;;;32.70;20.98;;;;;;;16.08;84.76;98875.03;8512499;27;20108;-81
2022/10/15 12:40:30;;;;;;;35.15;23.13;;;;;;;16.05;85.20;98864.88;8515463;27;20126;-82
2022/10/15 12:44:33;;;;;;;33.10;22.20;;;;;;;16.01;84.79;98864.00;8525972;27;20103;-82
2022/10/15 12:48:35;;;;;;;35.78;22.08;;;;;;;16.06;84.81;98866.44;8487954;27;20511;-83
2022/10/15 12:52:52;;;;;;;34.15;22.60;;;;;;;16.08;84.26;98869.59;8510407;27;20055;-82
2022/10/15 12:56:53;;;;;;;35.78;24.00;;;;;;;16.08;84.59;98864.16;8508999;27;20102;-82
2022/10/15 13:00:54;;;;;;;38.75;23.95;;;;;;;16.03;84.97;98861.69;8503441;27;20078;-82
2022/10/15 13:04:55;;;;;;;39.88;24.85;;;;;;;15.96;85.26;98866.97;8500938;27;20086;-82
2022/10/15 13:09:02;;;;;;;41.63;23.42;;;;;;;15.92;85.39;98871.50;8483412;27;20048;-82
2022/10/15 13:13:06;;;;;;;39.67;24.13;;;;;;;15.88;85.05;98870.63;8425700;28;20397;-82
2022/10/15 13:17:20;;;;;;;36.42;24.23;;;;;;;15.85;84.93;98882.22;8425779;28;20059;-84
2022/10/15 13:21:22;;;;;;;39.15;24.55;;;;;;;15.85;84.77;98874.06;8426531;28;20066;-82
2022/10/15 13:25:23;;;;;;;40.67;25.88;;;;;;;15.76;85.22;98862.53;8423314;28;20768;-82
2022/10/15 13:29:26;;;;;;;44.17;27.15;;;;;;;15.63;86.05;98869.97;8427064;28;20085;-81
2022/10/15 13:33:27;;;;;;;43.42;27.25;;;;;;;15.57;86.69;98866.72;8425105;28;20063;-83
2022/10/15 13:37:34;;;;;;;42.63;27.88;;;;;;;15.57;86.54;98871.34;8428350;28;20081;-82
2022/10/15 13:41:39;;;;;;;44.83;28.55;;;;;;;15.55;86.50;98871.69;8429534;27;20047;-84
2022/10/15 13:45:48;;;;;;;53.42;31.85;;;;;;;15.55;86.13;98879.88;8459354;27;20043;-82
2022/10/15 13:49:49;;;;;;;45.33;28.67;;;;;;;15.62;86.08;98880.06;8511533;27;20041;-82
2022/10/15 13:53:50;;;;;;;44.70;28.67;;;;;;;15.59;85.84;98880.78;8510440;27;20054;-81
2022/10/15 13:57:56;;;;;;;59.20;33.15;;;;;;;15.53;86.07;98871.28;8490364;27;20047;-82
2022/10/15 14:02:03;;;;;;;52.22;32.47;;;;;;;15.48;85.92;98879.66;8494338;27;20087;-82
2022/10/15 14:06:31;;;;;;;50.58;30.63;;;;;;;15.46;85.96;98881.91;8503686;27;20494;-83
2022/10/15 14:10:32;;;;;;;49.75;32.22;;;;;;;15.50;86.08;98885.53;8339043;28;20045;-82
2022/10/15 14:14:33;;;;;;;60.65;31.80;;;;;;;15.52;85.38;98886.00;8331849;28;20068;-81
2022/10/15 14:18:38;;;;;;;54.13;31.90;;;;;;;15.53;85.29;98887.59;8336816;28;20046;-84
2022/10/15 14:22:39;;;;;;;48.08;31.73;;;;;;;15.49;85.25;98888.63;8342132;28;20056;-82
2022/10/15 14:26:40;;;;;;;52.78;30.05;;;;;;;15.46;85.26;98887.38;8325125;28;20107;-82
2022/10/15 14:30:43;;;;;;;52.55;31.55;;;;;;;15.45;85.68;98891.22;8318943;28;20502;-83
2022/10/15 14:34:44;;;;;;;47.33;30.25;;;;;;;15.41;85.50;98889.53;8339565;28;20053;-82
2022/10/15 14:38:45;;;;;;;44.47;29.35;;;;;;;15.35;85.17;98880.81;8346257;28;20048;-82
2022/10/15 14:43:01;;;;;;;55.85;33.33;;;;;;;15.35;85.03;98880.81;8355947;28;20053;-82
2022/10/15 14:47:02;;;;;;;58.03;34.95;;;;;;;15.35;85.29;98875.38;8445727;27;20491;-81
2022/10/15 14:51:06;;;;;;;49.75;30.45;;;;;;;15.31;85.46;98885.38;8509308;27;20055;-80
2022/10/15 14:55:24;;;;;;;49.33;31.30;;;;;;;15.27;86.47;98879.03;8501605;27;20472;-82
2022/10/15 14:59:29;;;;;;;58.20;35.63;;;;;;;15.16;87.99;98883.38;8464555;27;20047;-80
2022/10/15 15:03:38;;;;;;;64.18;39.35;;;;;;;15.06;88.96;98889.31;8459334;27;20059;-80
2022/10/15 15:07:40;;;;;;;56.08;35.83;;;;;;;14.98;89.66;98892.94;8475495;27;20475;-81
2022/10/15 15:11:40;;;;;;;62.30;37.63;;;;;;;14.95;89.72;98899.06;8501516;27;20039;-80
2022/10/15 15:15:42;;;;;;;53.47;34.60;;;;;;;14.86;90.28;98906.56;8511124;27;20083;-81
2022/10/15 15:19:43;;;;;;;63.47;35.58;;;;;;;14.79;90.29;98918.78;8469848;27;20053;-81
2022/10/15 15:23:44;;;;;;;53.03;32.17;;;;;;;14.73;90.16;98914.72;8516386;27;20047;-80
2022/10/15 15:27:45;;;;;;;61.60;37.05;;;;;;;14.70;90.21;98920.00;8448621;27;20043;-81
2022/10/15 15:31:47;;;;;;;70.45;38.40;;;;;;;14.65;90.28;98918.31;8508209;27;20043;-82
2022/10/15 15:35:50;;;;;;;55.25;35.20;;;;;;;14.62;90.31;98916.28;8505905;27;20043;-81
2022/10/15 15:39:55;;;;;;;61.35;38.00;;;;;;;14.57;90.58;98916.53;8505632;27;20099;-79
2022/10/15 15:43:55;;;;;;;58.88;36.15;;;;;;;14.55;90.62;98921.50;8517166;27;20027;-81
2022/10/15 15:48:02;;;;;;;62.90;36.95;;;;;;;14.49;91.13;98928.28;8443687;27;20505;-82
2022/10/15 15:52:05;;;;;;;58.95;38.53;;;;;;;14.45;91.36;98935.53;8517436;27;20227;-81
2022/10/15 15:56:06;;;;;;;66.50;38.72;;;;;;;14.43;91.37;98943.25;8511388;27;20080;-80
2022/10/15 16:00:09;;;;;;;63.80;37.78;;;;;;;14.39;91.42;98942.31;8511605;27;20035;-82
2022/10/15 16:04:10;;;;;;;69.05;41.42;;;;;;;14.36;91.71;98940.25;8497889;27;20158;-80
2022/10/15 16:08:12;;;;;;;60.22;38.70;;;;;;;14.33;92.12;98949.06;8510343;27;20147;-81
2022/10/15 16:12:13;;;;;;;66.10;39.83;;;;;;;14.30;92.26;98944.31;8508009;27;20056;-81
2022/10/15 16:16:14;;;;;;;62.55;38.60;;;;;;;14.29;92.27;98953.56;8515125;27;20043;-80
2022/10/15 16:20:16;;;;;;;63.60;38.67;;;;;;;14.28;92.48;98957.41;8513495;27;20055;-80
2022/10/15 16:24:17;;;;;;;67.00;41.53;;;;;;;14.26;92.63;98954.25;8514759;27;20502;-82
2022/10/15 16:28:18;;;;;;;66.07;39.90;;;;;;;14.24;92.71;98967.38;8505883;27;20035;-85
2022/10/15 16:32:19;;;;;;;63.00;39.17;;;;;;;14.21;92.92;98959.91;8502562;27;20146;-83
2022/10/15 16:36:20;;;;;;;72.18;42.80;;;;;;;14.20;93.08;98961.03;8508533;27;20548;-83
2022/10/15 16:40:21;;;;;;;69.30;40.08;;;;;;;14.17;93.25;98962.47;8511852;27;20057;-81
2022/10/15 16:44:23;;;;;;;72.35;41.05;;;;;;;14.14;93.38;98967.81;8511914;27;20539;-83
2022/10/15 16:48:25;;;;;;;67.00;39.53;;;;;;;14.11;93.85;98979.34;8471910;27;20156;-83
2022/10/15 16:52:26;;;;;;;69.25;40.00;;;;;;;14.12;93.61;98975.47;8503038;27;20480;-81
2022/10/15 16:56:28;;;;;;;87.72;47.85;;;;;;;14.12;93.70;98983.63;8499588;27;20050;-81
2022/10/15 17:00:29;;;;;;;88.10;50.28;;;;;;;14.08;93.80;98980.78;8523937;27;20652;-82
2022/10/15 17:04:30;;;;;;;74.72;44.03;;;;;;;14.07;94.03;98984.63;8511474;27;20173;-82
2022/10/15 17:08:38;;;;;;;89.70;51.08;;;;;;;14.07;94.09;98983.84;8517182;27;20057;-84
2022/10/15 17:12:39;;;;;;;89.03;47.73;;;;;;;14.06;94.10;98998.56;8516968;27;20047;-81
2022/10/15 17:16:42;;;;;;;67.38;39.80;;;;;;;14.02;94.27;98992.19;8511445;27;20099;-81
2022/10/15 17:20:47;;;;;;;75.00;42.90;;;;;;;14.04;94.36;99000.81;8522102;27;20054;-80
2022/10/15 17:24:48;;;;;;;68.22;41.50;;;;;;;14.03;94.31;98999.22;8474834;27;20107;-80
2022/10/15 17:28:50;;;;;;;65.95;41.53;;;;;;;14.03;94.49;99015.50;8509042;27;20035;-81
2022/10/15 17:32:51;;;;;;;65.75;40.15;;;;;;;14.03;94.52;99016.31;8522640;27;20679;-81
2022/10/15 17:36:54;;;;;;;70.20;42.50;;;;;;;14.01;94.77;99023.22;8497649;27;20047;-82
2022/10/15 17:40:55;;;;;;;65.80;38.90;;;;;;;14.00;95.06;99018.91;8503950;27;20035;-82
2022/10/15 17:44:56;;;;;;;70.38;40.83;;;;;;;14.01;94.80;99034.06;8499857;27;20043;-83
2022/10/15 17:48:57;;;;;;;67.72;40.33;;;;;;;14.02;94.85;99035.63;8482941;27;20365;-81
2022/10/15 17:53:00;;;;;;;70.60;41.83;;;;;;;14.01;94.88;99034.84;8466379;27;20107;-82
2022/10/15 17:57:01;;;;;;;64.47;39.05;;;;;;;13.99;95.18;99047.16;8466667;27;20086;-82
2022/10/15 18:01:02;;;;;;;68.93;40.65;;;;;;;14.00;95.22;99048.75;8470735;27;20058;-82
2022/10/15 18:05:03;;;;;;;75.93;43.13;;;;;;;14.01;95.25;99058.50;8514512;27;20127;-81
2022/10/15 18:09:04;;;;;;;78.70;43.97;;;;;;;14.01;95.30;99039.50;8522694;27;20467;-81
2022/10/15 18:13:06;;;;;;;81.20;43.13;;;;;;;13.98;95.34;99045.56;8453500;27;20068;-82
2022/10/15 18:17:07;;;;;;;73.25;42.03;;;;;;;13.91;95.70;99052.31;8512888;27;20767;-81
2022/10/15 18:21:10;;;;;;;77.97;45.20;;;;;;;13.87;95.77;99056.84;8496834;27;20078;-80
2022/10/15 18:25:11;;;;;;;86.75;46.70;;;;;;;13.80;96.30;99050.38;8514717;27;20086;-82
2022/10/15 18:29:12;;;;;;;82.60;45.83;;;;;;;13.76;96.52;99050.22;8516293;27;20035;-81
2022/10/15 18:33:14;;;;;;;81.88;44.97;;;;;;;13.72;96.58;99060.16;8507727;27;20422;-81
2022/10/15 18:37:15;;;;;;;95.10;49.30;;;;;;;13.66;97.10;99050.59;8508621;27;20054;-81
2022/10/15 18:41:19;;;;;;;84.63;45.88;;;;;;;13.58;97.30;99054.19;8493297;27;20750;-80
2022/10/15 18:45:21;;;;;;;79.18;45.55;;;;;;;13.52;97.84;99069.06;8514885;27;20130;-81